Historique des mesures à Cassis (13260), France
Quotidien Résumé Mars 18, 2017 Unités:  US    Métrique   Métrique/US
« Précédent (Jour)
Suivant (Jour) »
Quotidien Hebdomadaire Mensuel Annuel Période au choix
  Maximum: Minimum: Moyenne:
Température: 32 °F 53.2 °F 58.6 °F
Point de rosée: 32 °F 44.4 °F 46.4 °F
Humidité: Humidity % 46 % 61 %
Vitesse du vent: WindSpeedKMH mph 0.0 mph 12.8 mph
Rafales: WindSpeedGustKMH mph - -
Vent:- - SSW
Pression: 0 in 29.8 in -
Précipitations: 0 in    
Historical Graphs
 
 
Mesures pour : Mars 18, 2017
Heure Temperature Point de rosée Pression Vent Vitesse du vent Rafales Humidité Pluie (par heure) Conditions
32 °F 32 °F 0 in Calm     Humidity % 0 in SoftwareType W/m2
00:11 54.9 °F 46.8 °F 30 in NW 2.6 mph 3.2 mph 74 % 0 in open2300-1.11 W/m2
01:10 56.1 °F 48.6 °F 30 in North 4.7 mph 7.9 mph 76 % 0 in open2300-1.11 W/m2
02:11 55.8 °F 48.2 °F 29.9 in Calm   5.5 mph 76 % 0 in open2300-1.11 W/m2
03:10 54.7 °F 47.1 °F 29.9 in Calm   1.8 mph 76 % 0 in open2300-1.11 W/m2
04:11 55 °F 47.8 °F 29.9 in Calm   3.2 mph 77 % 0 in open2300-1.11 W/m2
05:10 54.3 °F 47.1 °F 29.9 in Calm     77 % 0 in open2300-1.11 W/m2
06:11 53.2 °F 46.9 °F 29.9 in Calm   3.2 mph 79 % 0 in open2300-1.11 W/m2
07:10 57 °F 47.3 °F 29.9 in WNW 6.8 mph 9.0 mph 70 % 0 in open2300-1.11 W/m2
08:11 57.6 °F 46.2 °F 29.9 in NNW 3.5 mph 12.6 mph 66 % 0 in open2300-1.11 W/m2
09:10 59 °F 46.4 °F 29.9 in North 11.9 mph 16.9 mph 63 % 0 in open2300-1.11 W/m2
10:11 59.7 °F 47.8 °F 29.9 in West 4.7 mph 11.1 mph 65 % 0 in open2300-1.11 W/m2
11:10 61.5 °F 48 °F 29.9 in North 9.3 mph 14.0 mph 61 % 0 in open2300-1.11 W/m2
12:11 62.6 °F 46.6 °F 29.9 in NW 22.7 mph 22.7 mph 56 % 0 in open2300-1.11 W/m2
13:10 63.3 °F 46.2 °F 29.9 in NNE 11.1 mph 27.0 mph 54 % 0 in open2300-1.11 W/m2
14:11 62.6 °F 48.6 °F 29.9 in NW 20.9 mph 29.4 mph 60 % 0 in open2300-1.11 W/m2
15:10 63.7 °F 47.7 °F 29.9 in WNW 20.1 mph 27.7 mph 56 % 0 in open2300-1.11 W/m2
17:10 65.8 °F 44.4 °F 29.8 in NW 47.9 mph 47.9 mph 46 % 0 in open2300-1.11 W/m2
18:11 65.3 °F 46.2 °F 29.8 in NNW 18.7 mph 33.8 mph 50 % 0 in open2300-1.11 W/m2
19:10 64 °F 46.9 °F 29.8 in NW 23.8 mph 46.5 mph 54 % 0 in open2300-1.11 W/m2
20:11 63 °F 46.6 °F 29.8 in NW 23.0 mph 63.4 mph 55 % 0 in open2300-1.11 W/m2
21:10 62.4 °F 46 °F 29.8 in North 20.9 mph 35.6 mph 55 % 0 in open2300-1.11 W/m2
22:11 63 °F 46.6 °F 29.8 in NNE 33.1 mph 33.1 mph 55 % 0 in open2300-1.11 W/m2
23:10 62.2 °F 46.2 °F 29.8 in WNW 21.9 mph 21.9 mph 56 % 0 in open2300-1.11 W/m2
Observations météo à CASSIS
WU-History script by Weather Underground - 1 mb